sensor_id;sensor_type;location;lat;lon;timestamp;temperature;humidity
26655;DHT22;14278;50.784;4.630;2023-05-14T00:01:38;16.00;99.90
26655;DHT22;14278;50.784;4.630;2023-05-14T00:04:04;15.70;99.90
26655;DHT22;14278;50.784;4.630;2023-05-14T00:06:30;16.00;99.90
26655;DHT22;14278;50.784;4.630;2023-05-14T00:08:56;16.10;99.90
26655;DHT22;14278;50.784;4.630;2023-05-14T00:11:22;16.30;99.90
26655;DHT22;14278;50.784;4.630;2023-05-14T00:13:49;16.10;99.90
26655;DHT22;14278;50.784;4.630;2023-05-14T00:16:14;16.30;99.90
26655;DHT22;14278;50.784;4.630;2023-05-14T00:18:40;16.30;99.90
26655;DHT22;14278;50.784;4.630;2023-05-14T00:21:06;16.10;99.90
26655;DHT22;14278;50.784;4.630;2023-05-14T00:23:32;16.20;99.90
26655;DHT22;14278;50.784;4.630;2023-05-14T00:25:58;16.30;99.90
26655;DHT22;14278;50.784;4.630;2023-05-14T00:28:24;16.60;99.90
26655;DHT22;14278;50.784;4.630;2023-05-14T00:30:50;16.40;99.90
26655;DHT22;14278;50.784;4.630;2023-05-14T00:33:16;16.20;99.90
26655;DHT22;14278;50.784;4.630;2023-05-14T00:35:42;16.30;99.90
26655;DHT22;14278;50.784;4.630;2023-05-14T00:38:08;16.20;99.90
26655;DHT22;14278;50.784;4.630;2023-05-14T00:40:35;16.20;99.90
26655;DHT22;14278;50.784;4.630;2023-05-14T00:43:01;16.10;99.90
26655;DHT22;14278;50.784;4.630;2023-05-14T00:45:27;16.20;99.90
26655;DHT22;14278;50.784;4.630;2023-05-14T00:47:53;16.20;99.90
26655;DHT22;14278;50.784;4.630;2023-05-14T00:50:20;16.20;99.90
26655;DHT22;14278;50.784;4.630;2023-05-14T00:52:46;16.30;99.90
26655;DHT22;14278;50.784;4.630;2023-05-14T00:55:13;16.00;99.90
26655;DHT22;14278;50.784;4.630;2023-05-14T00:57:41;16.00;99.90
26655;DHT22;14278;50.784;4.630;2023-05-14T01:00:07;16.00;99.90
26655;DHT22;14278;50.784;4.630;2023-05-14T01:02:33;16.00;99.90
26655;DHT22;14278;50.784;4.630;2023-05-14T01:04:59;16.20;99.90
26655;DHT22;14278;50.784;4.630;2023-05-14T01:07:40;15.90;99.90
26655;DHT22;14278;50.784;4.630;2023-05-14T01:10:19;16.00;99.90
26655;DHT22;14278;50.784;4.630;2023-05-14T01:15:25;15.80;99.90
26655;DHT22;14278;50.784;4.630;2023-05-14T01:17:56;15.70;99.90
26655;DHT22;14278;50.784;4.630;2023-05-14T01:20:25;15.50;99.90
26655;DHT22;14278;50.784;4.630;2023-05-14T01:22:50;15.50;99.90
26655;DHT22;14278;50.784;4.630;2023-05-14T01:25:16;15.70;99.90
26655;DHT22;14278;50.784;4.630;2023-05-14T01:27:52;15.70;99.90
26655;DHT22;14278;50.784;4.630;2023-05-14T01:30:28;15.90;99.90
26655;DHT22;14278;50.784;4.630;2023-05-14T01:32:58;15.50;99.90
26655;DHT22;14278;50.784;4.630;2023-05-14T01:35:29;15.70;99.90
26655;DHT22;14278;50.784;4.630;2023-05-14T01:38:06;15.50;99.90
26655;DHT22;14278;50.784;4.630;2023-05-14T01:40:35;15.40;99.90
26655;DHT22;14278;50.784;4.630;2023-05-14T01:43:02;15.50;99.90
26655;DHT22;14278;50.784;4.630;2023-05-14T01:45:29;15.40;99.90
26655;DHT22;14278;50.784;4.630;2023-05-14T01:47:55;15.60;99.90
26655;DHT22;14278;50.784;4.630;2023-05-14T01:50:21;15.60;99.90
26655;DHT22;14278;50.784;4.630;2023-05-14T01:52:48;15.60;99.90
26655;DHT22;14278;50.784;4.630;2023-05-14T01:55:15;15.40;99.90
26655;DHT22;14278;50.784;4.630;2023-05-14T01:57:42;15.30;99.90
26655;DHT22;14278;50.784;4.630;2023-05-14T02:00:08;15.30;99.90
26655;DHT22;14278;50.784;4.630;2023-05-14T02:02:34;15.30;99.90
26655;DHT22;14278;50.784;4.630;2023-05-14T02:05:01;15.20;99.90
26655;DHT22;14278;50.784;4.630;2023-05-14T02:07:27;14.90;99.90
26655;DHT22;14278;50.784;4.630;2023-05-14T02:09:53;15.00;99.90
26655;DHT22;14278;50.784;4.630;2023-05-14T02:12:18;15.20;99.90
26655;DHT22;14278;50.784;4.630;2023-05-14T02:14:44;15.40;99.90
26655;DHT22;14278;50.784;4.630;2023-05-14T02:17:11;15.60;99.90
26655;DHT22;14278;50.784;4.630;2023-05-14T02:19:40;15.60;99.90
26655;DHT22;14278;50.784;4.630;2023-05-14T02:22:05;15.60;99.90
26655;DHT22;14278;50.784;4.630;2023-05-14T02:24:31;15.70;99.90
26655;DHT22;14278;50.784;4.630;2023-05-14T02:26:57;15.80;99.90
26655;DHT22;14278;50.784;4.630;2023-05-14T02:29:26;15.70;99.90
26655;DHT22;14278;50.784;4.630;2023-05-14T02:31:52;15.50;99.90
26655;DHT22;14278;50.784;4.630;2023-05-14T02:34:17;15.70;99.90
26655;DHT22;14278;50.784;4.630;2023-05-14T02:36:43;15.40;99.90
26655;DHT22;14278;50.784;4.630;2023-05-14T02:39:09;15.60;99.90
26655;DHT22;14278;50.784;4.630;2023-05-14T02:41:36;15.40;99.90
26655;DHT22;14278;50.784;4.630;2023-05-14T02:44:02;15.70;99.90
26655;DHT22;14278;50.784;4.630;2023-05-14T02:46:29;15.40;99.90
26655;DHT22;14278;50.784;4.630;2023-05-14T02:48:55;15.30;99.90
26655;DHT22;14278;50.784;4.630;2023-05-14T02:51:21;15.20;99.90
26655;DHT22;14278;50.784;4.630;2023-05-14T02:53:48;14.80;99.90
26655;DHT22;14278;50.784;4.630;2023-05-14T02:56:14;14.80;99.90
26655;DHT22;14278;50.784;4.630;2023-05-14T02:58:39;14.80;99.90
26655;DHT22;14278;50.784;4.630;2023-05-14T03:01:05;15.20;99.90
26655;DHT22;14278;50.784;4.630;2023-05-14T03:03:31;15.20;99.90
26655;DHT22;14278;50.784;4.630;2023-05-14T03:05:58;15.40;99.90
26655;DHT22;14278;50.784;4.630;2023-05-14T03:08:24;15.40;99.90
26655;DHT22;14278;50.784;4.630;2023-05-14T03:10:50;15.20;99.90
26655;DHT22;14278;50.784;4.630;2023-05-14T03:13:16;14.80;99.90
26655;DHT22;14278;50.784;4.630;2023-05-14T03:15:44;15.00;99.90
26655;DHT22;14278;50.784;4.630;2023-05-14T03:18:12;15.00;99.90
26655;DHT22;14278;50.784;4.630;2023-05-14T03:20:38;15.20;99.90
26655;DHT22;14278;50.784;4.630;2023-05-14T03:23:04;15.30;99.90
26655;DHT22;14278;50.784;4.630;2023-05-14T03:25:30;15.00;99.90
26655;DHT22;14278;50.784;4.630;2023-05-14T03:27:55;15.20;99.90
26655;DHT22;14278;50.784;4.630;2023-05-14T03:30:22;15.30;99.90
26655;DHT22;14278;50.784;4.630;2023-05-14T03:32:48;15.10;99.90
26655;DHT22;14278;50.784;4.630;2023-05-14T03:35:14;15.40;99.90
26655;DHT22;14278;50.784;4.630;2023-05-14T03:37:40;15.10;99.90
26655;DHT22;14278;50.784;4.630;2023-05-14T03:40:06;15.20;99.90
26655;DHT22;14278;50.784;4.630;2023-05-14T03:42:33;15.20;99.90
26655;DHT22;14278;50.784;4.630;2023-05-14T03:44:59;15.20;99.90
26655;DHT22;14278;50.784;4.630;2023-05-14T03:47:24;15.50;99.90
26655;DHT22;14278;50.784;4.630;2023-05-14T03:49:50;15.50;99.90
26655;DHT22;14278;50.784;4.630;2023-05-14T03:52:16;15.60;99.90
26655;DHT22;14278;50.784;4.630;2023-05-14T03:54:43;15.30;99.90
26655;DHT22;14278;50.784;4.630;2023-05-14T03:57:08;15.10;99.90
26655;DHT22;14278;50.784;4.630;2023-05-14T03:59:34;15.10;99.90
26655;DHT22;14278;50.784;4.630;2023-05-14T04:02:00;15.20;99.90
26655;DHT22;14278;50.784;4.630;2023-05-14T04:04:26;15.10;99.90
26655;DHT22;14278;50.784;4.630;2023-05-14T04:06:53;15.40;99.90
26655;DHT22;14278;50.784;4.630;2023-05-14T04:09:18;15.20;99.90
26655;DHT22;14278;50.784;4.630;2023-05-14T04:11:44;15.30;99.90
26655;DHT22;14278;50.784;4.630;2023-05-14T04:14:10;15.40;99.90
26655;DHT22;14278;50.784;4.630;2023-05-14T04:16:36;15.30;99.90
26655;DHT22;14278;50.784;4.630;2023-05-14T04:19:03;15.20;99.90
26655;DHT22;14278;50.784;4.630;2023-05-14T04:21:31;15.10;99.90
26655;DHT22;14278;50.784;4.630;2023-05-14T04:23:57;15.00;99.90
26655;DHT22;14278;50.784;4.630;2023-05-14T04:26:23;15.20;99.90
26655;DHT22;14278;50.784;4.630;2023-05-14T04:28:48;15.20;99.90
26655;DHT22;14278;50.784;4.630;2023-05-14T04:31:15;15.00;99.90
26655;DHT22;14278;50.784;4.630;2023-05-14T04:33:41;14.90;99.90
26655;DHT22;14278;50.784;4.630;2023-05-14T04:36:07;15.00;99.90
26655;DHT22;14278;50.784;4.630;2023-05-14T04:38:33;15.10;99.90
26655;DHT22;14278;50.784;4.630;2023-05-14T04:40:59;15.30;99.90
26655;DHT22;14278;50.784;4.630;2023-05-14T04:43:25;15.40;99.90
26655;DHT22;14278;50.784;4.630;2023-05-14T04:45:51;15.30;99.90
26655;DHT22;14278;50.784;4.630;2023-05-14T04:48:17;15.50;99.90
26655;DHT22;14278;50.784;4.630;2023-05-14T04:50:43;15.30;99.90
26655;DHT22;14278;50.784;4.630;2023-05-14T04:53:09;15.40;99.90
26655;DHT22;14278;50.784;4.630;2023-05-14T04:55:36;15.50;99.90
26655;DHT22;14278;50.784;4.630;2023-05-14T04:58:02;15.40;99.90
26655;DHT22;14278;50.784;4.630;2023-05-14T05:00:28;15.40;99.90
26655;DHT22;14278;50.784;4.630;2023-05-14T05:02:54;15.50;99.90
26655;DHT22;14278;50.784;4.630;2023-05-14T05:05:20;15.10;99.90
26655;DHT22;14278;50.784;4.630;2023-05-14T05:07:47;15.40;99.90
26655;DHT22;14278;50.784;4.630;2023-05-14T05:10:12;14.90;99.90
26655;DHT22;14278;50.784;4.630;2023-05-14T05:12:38;15.30;99.90
26655;DHT22;14278;50.784;4.630;2023-05-14T05:15:04;15.10;99.90
26655;DHT22;14278;50.784;4.630;2023-05-14T05:17:30;15.20;99.90
26655;DHT22;14278;50.784;4.630;2023-05-14T05:19:57;15.50;99.90
26655;DHT22;14278;50.784;4.630;2023-05-14T05:22:23;15.60;99.90
26655;DHT22;14278;50.784;4.630;2023-05-14T05:24:49;15.50;99.90
26655;DHT22;14278;50.784;4.630;2023-05-14T05:27:14;15.50;99.90
26655;DHT22;14278;50.784;4.630;2023-05-14T05:29:41;15.20;99.90
26655;DHT22;14278;50.784;4.630;2023-05-14T05:32:07;15.50;99.90
26655;DHT22;14278;50.784;4.630;2023-05-14T05:34:33;15.40;99.90
26655;DHT22;14278;50.784;4.630;2023-05-14T05:37:00;15.60;99.90
26655;DHT22;14278;50.784;4.630;2023-05-14T05:39:25;15.70;99.90
26655;DHT22;14278;50.784;4.630;2023-05-14T05:41:53;15.80;99.90
26655;DHT22;14278;50.784;4.630;2023-05-14T05:44:19;15.70;99.90
26655;DHT22;14278;50.784;4.630;2023-05-14T05:46:45;15.90;99.90
26655;DHT22;14278;50.784;4.630;2023-05-14T05:49:11;15.10;99.90
26655;DHT22;14278;50.784;4.630;2023-05-14T05:51:37;15.20;99.90
26655;DHT22;14278;50.784;4.630;2023-05-14T05:54:02;15.50;99.90
26655;DHT22;14278;50.784;4.630;2023-05-14T05:56:29;15.60;99.90
26655;DHT22;14278;50.784;4.630;2023-05-14T05:58:55;15.90;99.90
26655;DHT22;14278;50.784;4.630;2023-05-14T06:01:21;15.90;99.90
26655;DHT22;14278;50.784;4.630;2023-05-14T06:03:46;16.00;99.90
26655;DHT22;14278;50.784;4.630;2023-05-14T06:06:12;15.90;99.90
26655;DHT22;14278;50.784;4.630;2023-05-14T06:08:40;15.80;99.90
26655;DHT22;14278;50.784;4.630;2023-05-14T06:11:07;15.80;99.90
26655;DHT22;14278;50.784;4.630;2023-05-14T06:13:32;15.50;99.90
26655;DHT22;14278;50.784;4.630;2023-05-14T06:15:58;15.40;99.90
26655;DHT22;14278;50.784;4.630;2023-05-14T06:18:24;15.70;99.90
26655;DHT22;14278;50.784;4.630;2023-05-14T06:20:50;15.90;99.90
26655;DHT22;14278;50.784;4.630;2023-05-14T06:23:16;15.80;99.90
26655;DHT22;14278;50.784;4.630;2023-05-14T06:25:42;15.90;99.90
26655;DHT22;14278;50.784;4.630;2023-05-14T06:28:08;15.70;99.90
26655;DHT22;14278;50.784;4.630;2023-05-14T06:30:33;15.90;99.90
26655;DHT22;14278;50.784;4.630;2023-05-14T06:33:00;15.90;99.90
26655;DHT22;14278;50.784;4.630;2023-05-14T06:35:26;15.80;99.90
26655;DHT22;14278;50.784;4.630;2023-05-14T06:37:52;16.10;99.90
26655;DHT22;14278;50.784;4.630;2023-05-14T06:40:18;15.80;99.90
26655;DHT22;14278;50.784;4.630;2023-05-14T06:42:43;15.70;99.90
26655;DHT22;14278;50.784;4.630;2023-05-14T06:45:10;16.10;99.90
26655;DHT22;14278;50.784;4.630;2023-05-14T06:47:36;15.70;99.90
26655;DHT22;14278;50.784;4.630;2023-05-14T06:50:02;15.60;99.90
26655;DHT22;14278;50.784;4.630;2023-05-14T06:52:28;15.90;99.90
26655;DHT22;14278;50.784;4.630;2023-05-14T06:54:53;15.80;99.90
26655;DHT22;14278;50.784;4.630;2023-05-14T06:57:20;16.10;99.90
26655;DHT22;14278;50.784;4.630;2023-05-14T06:59:46;16.20;99.90
26655;DHT22;14278;50.784;4.630;2023-05-14T07:02:12;16.40;99.90
26655;DHT22;14278;50.784;4.630;2023-05-14T07:04:37;16.50;99.90
26655;DHT22;14278;50.784;4.630;2023-05-14T07:07:03;16.20;99.90
26655;DHT22;14278;50.784;4.630;2023-05-14T07:09:30;16.40;99.90
26655;DHT22;14278;50.784;4.630;2023-05-14T07:11:56;16.20;99.90
26655;DHT22;14278;50.784;4.630;2023-05-14T07:14:22;16.00;99.90
26655;DHT22;14278;50.784;4.630;2023-05-14T07:16:48;16.10;99.90
26655;DHT22;14278;50.784;4.630;2023-05-14T07:19:13;16.10;99.90
26655;DHT22;14278;50.784;4.630;2023-05-14T07:21:40;16.10;99.90
26655;DHT22;14278;50.784;4.630;2023-05-14T07:24:06;16.20;99.90
26655;DHT22;14278;50.784;4.630;2023-05-14T07:26:32;16.20;99.90
26655;DHT22;14278;50.784;4.630;2023-05-14T07:28:57;16.10;99.90
26655;DHT22;14278;50.784;4.630;2023-05-14T07:31:23;16.20;99.90
26655;DHT22;14278;50.784;4.630;2023-05-14T07:33:50;16.50;99.90
26655;DHT22;14278;50.784;4.630;2023-05-14T07:36:16;16.30;99.90
26655;DHT22;14278;50.784;4.630;2023-05-14T07:38:42;16.80;99.90
26655;DHT22;14278;50.784;4.630;2023-05-14T07:41:07;16.40;99.90
26655;DHT22;14278;50.784;4.630;2023-05-14T07:43:33;16.40;99.90
26655;DHT22;14278;50.784;4.630;2023-05-14T07:46:00;16.40;99.90
26655;DHT22;14278;50.784;4.630;2023-05-14T07:48:26;16.50;99.90
26655;DHT22;14278;50.784;4.630;2023-05-14T07:50:51;16.60;99.90
26655;DHT22;14278;50.784;4.630;2023-05-14T07:53:18;16.90;99.90
26655;DHT22;14278;50.784;4.630;2023-05-14T07:55:44;16.70;99.90
26655;DHT22;14278;50.784;4.630;2023-05-14T07:58:13;16.60;99.90
26655;DHT22;14278;50.784;4.630;2023-05-14T08:00:38;16.30;99.90
26655;DHT22;14278;50.784;4.630;2023-05-14T08:03:04;16.50;99.90
26655;DHT22;14278;50.784;4.630;2023-05-14T08:05:30;16.70;99.90
26655;DHT22;14278;50.784;4.630;2023-05-14T08:07:57;16.60;99.90
26655;DHT22;14278;50.784;4.630;2023-05-14T08:10:24;16.70;99.90
26655;DHT22;14278;50.784;4.630;2023-05-14T08:12:50;16.70;99.90
26655;DHT22;14278;50.784;4.630;2023-05-14T08:15:16;17.00;99.90
26655;DHT22;14278;50.784;4.630;2023-05-14T08:17:41;16.70;99.90
26655;DHT22;14278;50.784;4.630;2023-05-14T08:20:08;16.90;99.90
26655;DHT22;14278;50.784;4.630;2023-05-14T08:22:36;17.40;99.90
26655;DHT22;14278;50.784;4.630;2023-05-14T08:25:02;17.50;99.90
26655;DHT22;14278;50.784;4.630;2023-05-14T08:27:30;17.10;99.90
26655;DHT22;14278;50.784;4.630;2023-05-14T08:29:56;17.10;99.90
26655;DHT22;14278;50.784;4.630;2023-05-14T08:32:22;17.10;99.90
26655;DHT22;14278;50.784;4.630;2023-05-14T08:34:49;16.90;99.90
26655;DHT22;14278;50.784;4.630;2023-05-14T08:37:15;17.10;99.90
26655;DHT22;14278;50.784;4.630;2023-05-14T08:39:40;16.60;99.90
26655;DHT22;14278;50.784;4.630;2023-05-14T08:42:06;17.10;99.90
26655;DHT22;14278;50.784;4.630;2023-05-14T08:44:38;17.40;99.90
26655;DHT22;14278;50.784;4.630;2023-05-14T08:47:10;17.60;99.90
26655;DHT22;14278;50.784;4.630;2023-05-14T08:49:40;17.90;99.90
26655;DHT22;14278;50.784;4.630;2023-05-14T08:52:07;17.90;99.90
26655;DHT22;14278;50.784;4.630;2023-05-14T08:54:33;17.30;99.90
26655;DHT22;14278;50.784;4.630;2023-05-14T08:57:00;17.30;99.90
26655;DHT22;14278;50.784;4.630;2023-05-14T08:59:26;17.50;99.90
26655;DHT22;14278;50.784;4.630;2023-05-14T09:01:53;17.40;99.90
26655;DHT22;14278;50.784;4.630;2023-05-14T09:04:21;17.30;99.90
26655;DHT22;14278;50.784;4.630;2023-05-14T09:06:49;17.40;99.90
26655;DHT22;14278;50.784;4.630;2023-05-14T09:09:15;17.40;99.90
26655;DHT22;14278;50.784;4.630;2023-05-14T09:11:44;18.00;99.90
26655;DHT22;14278;50.784;4.630;2023-05-14T09:14:10;19.30;99.90
26655;DHT22;14278;50.784;4.630;2023-05-14T09:16:36;20.40;99.90
26655;DHT22;14278;50.784;4.630;2023-05-14T09:19:06;21.00;99.90
26655;DHT22;14278;50.784;4.630;2023-05-14T09:21:32;20.70;99.90
26655;DHT22;14278;50.784;4.630;2023-05-14T09:23:59;20.50;99.90
26655;DHT22;14278;50.784;4.630;2023-05-14T09:26:26;20.80;99.90
26655;DHT22;14278;50.784;4.630;2023-05-14T09:29:02;21.30;99.90
26655;DHT22;14278;50.784;4.630;2023-05-14T09:31:32;21.40;99.90
26655;DHT22;14278;50.784;4.630;2023-05-14T09:33:59;21.90;99.90
26655;DHT22;14278;50.784;4.630;2023-05-14T09:36:26;21.70;99.90
26655;DHT22;14278;50.784;4.630;2023-05-14T09:38:55;21.30;99.90
26655;DHT22;14278;50.784;4.630;2023-05-14T09:41:22;21.70;99.90
26655;DHT22;14278;50.784;4.630;2023-05-14T09:43:49;22.00;99.90
26655;DHT22;14278;50.784;4.630;2023-05-14T09:46:15;22.70;99.90
26655;DHT22;14278;50.784;4.630;2023-05-14T09:48:42;23.30;99.90
26655;DHT22;14278;50.784;4.630;2023-05-14T09:51:11;23.90;99.90
26655;DHT22;14278;50.784;4.630;2023-05-14T09:53:37;23.60;99.90
26655;DHT22;14278;50.784;4.630;2023-05-14T09:56:05;22.80;99.90
26655;DHT22;14278;50.784;4.630;2023-05-14T09:58:31;23.50;99.90
26655;DHT22;14278;50.784;4.630;2023-05-14T10:00:58;22.90;99.90
26655;DHT22;14278;50.784;4.630;2023-05-14T10:03:28;23.20;99.90
26655;DHT22;14278;50.784;4.630;2023-05-14T10:05:57;23.50;99.90
26655;DHT22;14278;50.784;4.630;2023-05-14T10:08:44;22.90;99.90
26655;DHT22;14278;50.784;4.630;2023-05-14T10:11:14;21.50;99.90
26655;DHT22;14278;50.784;4.630;2023-05-14T10:13:47;21.10;99.90
26655;DHT22;14278;50.784;4.630;2023-05-14T10:16:42;21.30;99.90
26655;DHT22;14278;50.784;4.630;2023-05-14T10:19:11;22.10;99.90
26655;DHT22;14278;50.784;4.630;2023-05-14T10:21:39;23.80;99.90
26655;DHT22;14278;50.784;4.630;2023-05-14T10:24:07;23.50;99.90
26655;DHT22;14278;50.784;4.630;2023-05-14T10:26:34;23.30;99.90
26655;DHT22;14278;50.784;4.630;2023-05-14T10:29:12;23.10;99.90
26655;DHT22;14278;50.784;4.630;2023-05-14T10:31:51;24.20;99.90
26655;DHT22;14278;50.784;4.630;2023-05-14T10:34:36;25.20;99.90
26655;DHT22;14278;50.784;4.630;2023-05-14T10:37:05;26.90;99.90
26655;DHT22;14278;50.784;4.630;2023-05-14T10:39:42;26.40;99.90
26655;DHT22;14278;50.784;4.630;2023-05-14T10:42:10;26.10;99.90
26655;DHT22;14278;50.784;4.630;2023-05-14T10:44:46;27.10;99.90
26655;DHT22;14278;50.784;4.630;2023-05-14T10:47:13;26.80;99.90
26655;DHT22;14278;50.784;4.630;2023-05-14T10:49:40;27.40;99.90
26655;DHT22;14278;50.784;4.630;2023-05-14T10:52:07;27.10;99.90
26655;DHT22;14278;50.784;4.630;2023-05-14T10:54:37;26.80;99.90
26655;DHT22;14278;50.784;4.630;2023-05-14T10:57:03;25.90;99.90
26655;DHT22;14278;50.784;4.630;2023-05-14T10:59:33;28.20;99.90
26655;DHT22;14278;50.784;4.630;2023-05-14T11:02:04;28.80;99.90
26655;DHT22;14278;50.784;4.630;2023-05-14T11:04:30;27.90;99.90
26655;DHT22;14278;50.784;4.630;2023-05-14T11:06:56;28.90;99.90
26655;DHT22;14278;50.784;4.630;2023-05-14T11:09:23;28.30;99.90
26655;DHT22;14278;50.784;4.630;2023-05-14T11:11:50;28.00;99.90
26655;DHT22;14278;50.784;4.630;2023-05-14T11:14:17;29.30;99.90
26655;DHT22;14278;50.784;4.630;2023-05-14T11:16:44;30.10;99.90
26655;DHT22;14278;50.784;4.630;2023-05-14T11:19:11;31.20;99.90
26655;DHT22;14278;50.784;4.630;2023-05-14T11:21:37;31.70;99.90
26655;DHT22;14278;50.784;4.630;2023-05-14T11:24:03;29.90;99.90
26655;DHT22;14278;50.784;4.630;2023-05-14T11:26:31;30.00;99.90
26655;DHT22;14278;50.784;4.630;2023-05-14T11:28:58;29.50;99.90
26655;DHT22;14278;50.784;4.630;2023-05-14T11:31:24;28.90;99.90
26655;DHT22;14278;50.784;4.630;2023-05-14T11:33:51;29.30;99.90
26655;DHT22;14278;50.784;4.630;2023-05-14T11:36:17;28.90;99.90
26655;DHT22;14278;50.784;4.630;2023-05-14T11:38:47;28.70;99.90
26655;DHT22;14278;50.784;4.630;2023-05-14T11:41:13;28.20;99.90
26655;DHT22;14278;50.784;4.630;2023-05-14T11:43:40;28.30;99.90
26655;DHT22;14278;50.784;4.630;2023-05-14T11:46:06;28.80;99.90
26655;DHT22;14278;50.784;4.630;2023-05-14T11:48:32;28.80;99.90
26655;DHT22;14278;50.784;4.630;2023-05-14T11:50:58;27.00;99.90
26655;DHT22;14278;50.784;4.630;2023-05-14T11:53:28;26.70;99.90
26655;DHT22;14278;50.784;4.630;2023-05-14T11:55:55;26.80;99.90
26655;DHT22;14278;50.784;4.630;2023-05-14T11:58:24;26.40;99.90
26655;DHT22;14278;50.784;4.630;2023-05-14T12:00:51;25.90;99.90
26655;DHT22;14278;50.784;4.630;2023-05-14T12:03:18;25.10;99.90
26655;DHT22;14278;50.784;4.630;2023-05-14T12:05:59;24.30;99.90
26655;DHT22;14278;50.784;4.630;2023-05-14T12:08:27;24.40;99.90
26655;DHT22;14278;50.784;4.630;2023-05-14T12:10:53;24.60;99.90
26655;DHT22;14278;50.784;4.630;2023-05-14T12:13:19;24.50;99.90
26655;DHT22;14278;50.784;4.630;2023-05-14T12:15:56;24.70;99.90
26655;DHT22;14278;50.784;4.630;2023-05-14T12:18:27;24.00;99.90
26655;DHT22;14278;50.784;4.630;2023-05-14T12:20:53;24.00;99.90
26655;DHT22;14278;50.784;4.630;2023-05-14T12:23:25;23.90;99.90
26655;DHT22;14278;50.784;4.630;2023-05-14T12:25:52;24.10;99.90
26655;DHT22;14278;50.784;4.630;2023-05-14T12:28:18;23.70;99.90
26655;DHT22;14278;50.784;4.630;2023-05-14T12:30:45;23.40;99.90
26655;DHT22;14278;50.784;4.630;2023-05-14T12:33:12;23.40;99.90
26655;DHT22;14278;50.784;4.630;2023-05-14T12:35:39;23.80;99.90
26655;DHT22;14278;50.784;4.630;2023-05-14T12:38:05;23.80;99.90
26655;DHT22;14278;50.784;4.630;2023-05-14T12:40:31;23.70;99.90
26655;DHT22;14278;50.784;4.630;2023-05-14T12:42:57;23.30;99.90
26655;DHT22;14278;50.784;4.630;2023-05-14T12:45:23;23.00;99.90
26655;DHT22;14278;50.784;4.630;2023-05-14T12:47:49;22.60;99.90
26655;DHT22;14278;50.784;4.630;2023-05-14T12:50:15;23.00;99.90
26655;DHT22;14278;50.784;4.630;2023-05-14T12:52:41;23.20;99.90
26655;DHT22;14278;50.784;4.630;2023-05-14T12:55:07;23.30;99.90
26655;DHT22;14278;50.784;4.630;2023-05-14T12:57:33;23.40;99.90
26655;DHT22;14278;50.784;4.630;2023-05-14T12:59:59;23.00;99.90
26655;DHT22;14278;50.784;4.630;2023-05-14T13:02:26;23.30;99.90
26655;DHT22;14278;50.784;4.630;2023-05-14T13:04:51;22.70;99.90
26655;DHT22;14278;50.784;4.630;2023-05-14T13:07:18;22.50;99.90
26655;DHT22;14278;50.784;4.630;2023-05-14T13:09:43;22.40;99.90
26655;DHT22;14278;50.784;4.630;2023-05-14T13:12:09;22.80;99.90
26655;DHT22;14278;50.784;4.630;2023-05-14T13:14:35;23.20;99.90
26655;DHT22;14278;50.784;4.630;2023-05-14T13:17:02;23.40;99.90
26655;DHT22;14278;50.784;4.630;2023-05-14T13:19:29;23.10;99.90
26655;DHT22;14278;50.784;4.630;2023-05-14T13:21:54;23.10;99.90
26655;DHT22;14278;50.784;4.630;2023-05-14T13:24:20;23.00;99.90
26655;DHT22;14278;50.784;4.630;2023-05-14T13:26:46;22.60;99.90
26655;DHT22;14278;50.784;4.630;2023-05-14T13:29:12;22.90;99.90
26655;DHT22;14278;50.784;4.630;2023-05-14T13:31:38;22.50;99.90
26655;DHT22;14278;50.784;4.630;2023-05-14T13:34:04;22.70;99.90
26655;DHT22;14278;50.784;4.630;2023-05-14T13:36:30;22.90;99.90
26655;DHT22;14278;50.784;4.630;2023-05-14T13:38:56;23.20;99.90
26655;DHT22;14278;50.784;4.630;2023-05-14T13:41:22;23.00;99.90
26655;DHT22;14278;50.784;4.630;2023-05-14T13:43:48;23.20;99.90
26655;DHT22;14278;50.784;4.630;2023-05-14T13:46:14;23.30;99.90
26655;DHT22;14278;50.784;4.630;2023-05-14T13:48:40;23.40;99.90
26655;DHT22;14278;50.784;4.630;2023-05-14T13:51:06;23.50;99.90
26655;DHT22;14278;50.784;4.630;2023-05-14T13:53:32;23.00;99.90
26655;DHT22;14278;50.784;4.630;2023-05-14T13:55:58;23.00;99.90
26655;DHT22;14278;50.784;4.630;2023-05-14T13:58:26;22.90;99.90
26655;DHT22;14278;50.784;4.630;2023-05-14T14:00:52;22.90;99.90
26655;DHT22;14278;50.784;4.630;2023-05-14T14:03:19;22.90;99.90
26655;DHT22;14278;50.784;4.630;2023-05-14T14:05:45;23.30;99.90
26655;DHT22;14278;50.784;4.630;2023-05-14T14:08:11;23.40;99.90
26655;DHT22;14278;50.784;4.630;2023-05-14T14:10:37;23.40;99.90
26655;DHT22;14278;50.784;4.630;2023-05-14T14:13:05;23.50;99.90
26655;DHT22;14278;50.784;4.630;2023-05-14T14:15:31;23.60;99.90
26655;DHT22;14278;50.784;4.630;2023-05-14T14:17:57;23.80;99.90
26655;DHT22;14278;50.784;4.630;2023-05-14T14:20:23;22.80;99.90
26655;DHT22;14278;50.784;4.630;2023-05-14T14:22:49;23.00;99.90
26655;DHT22;14278;50.784;4.630;2023-05-14T14:25:15;23.10;99.90
26655;DHT22;14278;50.784;4.630;2023-05-14T14:27:41;23.30;99.90
26655;DHT22;14278;50.784;4.630;2023-05-14T14:30:08;23.80;99.90
26655;DHT22;14278;50.784;4.630;2023-05-14T14:32:43;23.60;99.90
26655;DHT22;14278;50.784;4.630;2023-05-14T14:35:10;23.50;99.90
26655;DHT22;14278;50.784;4.630;2023-05-14T14:37:36;23.50;99.90
26655;DHT22;14278;50.784;4.630;2023-05-14T14:40:03;23.70;99.90
26655;DHT22;14278;50.784;4.630;2023-05-14T14:42:33;24.00;99.90
26655;DHT22;14278;50.784;4.630;2023-05-14T14:44:59;24.40;99.90
26655;DHT22;14278;50.784;4.630;2023-05-14T14:47:25;24.50;99.90
26655;DHT22;14278;50.784;4.630;2023-05-14T14:49:50;24.50;99.90
26655;DHT22;14278;50.784;4.630;2023-05-14T14:52:17;24.20;99.90
26655;DHT22;14278;50.784;4.630;2023-05-14T14:54:42;24.00;99.90
26655;DHT22;14278;50.784;4.630;2023-05-14T14:57:09;24.10;99.90
26655;DHT22;14278;50.784;4.630;2023-05-14T14:59:34;24.10;99.90
26655;DHT22;14278;50.784;4.630;2023-05-14T15:02:00;23.90;99.90
26655;DHT22;14278;50.784;4.630;2023-05-14T15:04:27;24.10;99.90
26655;DHT22;14278;50.784;4.630;2023-05-14T15:06:54;24.20;99.90
26655;DHT22;14278;50.784;4.630;2023-05-14T15:09:20;23.40;99.90
26655;DHT22;14278;50.784;4.630;2023-05-14T15:11:46;23.40;99.90
26655;DHT22;14278;50.784;4.630;2023-05-14T15:14:12;23.10;99.90
26655;DHT22;14278;50.784;4.630;2023-05-14T15:16:40;23.20;99.90
26655;DHT22;14278;50.784;4.630;2023-05-14T15:19:06;23.20;99.90
26655;DHT22;14278;50.784;4.630;2023-05-14T15:21:32;23.20;99.90
26655;DHT22;14278;50.784;4.630;2023-05-14T15:23:58;23.20;99.90
26655;DHT22;14278;50.784;4.630;2023-05-14T15:26:24;23.20;99.90
26655;DHT22;14278;50.784;4.630;2023-05-14T15:28:51;23.30;99.90
26655;DHT22;14278;50.784;4.630;2023-05-14T15:31:16;22.70;99.90